createdAt,value
2022-11-24T00:01:36.727Z,100364.75
2022-11-24T00:04:40.774Z,100371.16
2022-11-24T00:07:44.934Z,100364.53
2022-11-24T00:10:49.015Z,100369.97
2022-11-24T00:13:52.214Z,100369.97
2022-11-24T00:16:56.485Z,100375.44
2022-11-24T00:20:00.583Z,100372.44
2022-11-24T00:23:04.796Z,100363.63
2022-11-24T00:26:10.884Z,100362.69
2022-11-24T00:29:13.721Z,100371.34
2022-11-24T00:32:17.717Z,100369.50
2022-11-24T00:35:21.753Z,100376.72
2022-11-24T00:38:26.673Z,100371.38
2022-11-24T00:41:31.761Z,100364.75
2022-11-24T00:44:34.658Z,100360.38
2022-11-24T00:47:38.897Z,100359.72
2022-11-24T00:50:42.953Z,100361.97
2022-11-24T00:53:48.770Z,100369.94
2022-11-24T00:56:51.525Z,100369.34
2022-11-24T00:59:55.569Z,100377.84
2022-11-24T01:02:58.361Z,100371.22
2022-11-24T01:06:06.577Z,100376.19
2022-11-24T01:09:11.987Z,100378.69
2022-11-24T01:12:15.993Z,100375.53
2022-11-24T01:15:19.047Z,100389.78
2022-11-24T01:18:23.045Z,100389.53
2022-11-24T01:21:27.462Z,100378.50
2022-11-24T01:24:32.022Z,100374.97
2022-11-24T01:27:36.213Z,100386.22
2022-11-24T01:30:40.249Z,100388.31
2022-11-24T01:33:43.494Z,100380.78
2022-11-24T01:36:47.508Z,100382.38
2022-11-24T01:39:51.700Z,100377.16
2022-11-24T01:42:55.710Z,100382.59
2022-11-24T01:46:03.849Z,100387.28
2022-11-24T01:49:15.922Z,100398.78
2022-11-24T01:52:24.981Z,100402.75
2022-11-24T01:55:33.913Z,100396.88
2022-11-24T01:58:39.846Z,100418.56
2022-11-24T02:05:09.322Z,100406.28
2022-11-24T02:08:20.284Z,100417.94
2022-11-24T02:11:26.587Z,100422.97
2022-11-24T02:14:30.947Z,100427.50
2022-11-24T02:17:35.056Z,100417.56
2022-11-24T02:20:38.114Z,100416.69
2022-11-24T02:23:51.911Z,100414.41
2022-11-24T02:26:56.036Z,100417.56
2022-11-24T02:30:00.709Z,100417.78
2022-11-24T02:33:05.011Z,100409.84
2022-11-24T02:36:08.494Z,100412.53
2022-11-24T02:39:13.687Z,100410.84
2022-11-24T02:42:18.051Z,100416.50
2022-11-24T02:45:24.157Z,100419.84
2022-11-24T02:48:28.284Z,100417.78
2022-11-24T02:51:31.034Z,100420.94
2022-11-24T02:54:35.291Z,100417.34
2022-11-24T02:57:39.679Z,100420.69
2022-11-24T03:00:43.867Z,100424.03
2022-11-24T03:03:48.251Z,100426.97
2022-11-24T03:06:51.095Z,100424.25
2022-11-24T03:09:55.154Z,100423.44
2022-11-24T03:12:59.616Z,100419.28
2022-11-24T03:16:03.676Z,100428.41
2022-11-24T03:19:06.506Z,100442.41
2022-11-24T03:22:12.335Z,100435.28
2022-11-24T03:25:15.134Z,100438.66
2022-11-24T03:28:20.552Z,100438.03
2022-11-24T03:31:25.454Z,100448.44
2022-11-24T03:34:28.295Z,100449.44
2022-11-24T03:37:32.776Z,100437.63
2022-11-24T03:40:35.545Z,100443.47
2022-11-24T03:43:43.983Z,100444.31
2022-11-24T03:46:48.589Z,100441.81
2022-11-24T03:49:51.438Z,100455.09
2022-11-24T03:52:55.592Z,100456.38
2022-11-24T03:55:58.625Z,100443.44
2022-11-24T03:59:04.349Z,100464.72
2022-11-24T04:02:09.059Z,100473.66
2022-11-24T04:05:11.841Z,100472.81
2022-11-24T04:08:16.789Z,100468.88
2022-11-24T04:11:33.435Z,100478.28
2022-11-24T04:14:38.814Z,100479.09
2022-11-24T04:17:42.934Z,100471.19
2022-11-24T04:20:45.922Z,100462.66
2022-11-24T04:23:49.957Z,100458.69
2022-11-24T04:26:52.752Z,100457.25
2022-11-24T04:29:58.186Z,100464.31
2022-11-24T04:33:01.035Z,100483.06
2022-11-24T04:36:05.330Z,100488.03
2022-11-24T04:39:25.671Z,100485.97
2022-11-24T04:42:30.651Z,100500.16
2022-11-24T04:45:34.817Z,100498.28
2022-11-24T04:48:37.632Z,100502.41
2022-11-24T04:51:40.545Z,100513.91
2022-11-24T04:54:43.646Z,100503.06
2022-11-24T04:57:46.497Z,100514.94
2022-11-24T05:00:50.670Z,100525.78
2022-11-24T05:03:54.694Z,100525.16
2022-11-24T05:06:57.499Z,100538.47
2022-11-24T05:10:29.091Z,100527.19
2022-11-24T05:13:33.207Z,100529.94
2022-11-24T05:16:37.743Z,100540.34
2022-11-24T05:19:41.676Z,100538.47
2022-11-24T05:22:44.334Z,100547.25
2022-11-24T05:25:47.922Z,100539.94
2022-11-24T05:28:52.041Z,100546.81
2022-11-24T05:31:56.792Z,100552.44
2022-11-24T05:35:01.359Z,100558.06
2022-11-24T05:38:05.103Z,100553.47
2022-11-24T05:41:08.986Z,100560.13
2022-11-24T05:44:11.771Z,100557.66
2022-11-24T05:47:17.034Z,100559.09
2022-11-24T05:50:23.020Z,100560.16
2022-11-24T05:53:26.946Z,100560.38
2022-11-24T05:56:30.874Z,100565.59
2022-11-24T05:59:33.835Z,100557.44
2022-11-24T06:02:38.104Z,100568.91
2022-11-24T06:05:42.162Z,100562.84
2022-11-24T06:08:44.853Z,100567.66
2022-11-24T06:11:49.367Z,100583.91
2022-11-24T06:14:53.237Z,100583.50
2022-11-24T06:17:57.445Z,100589.75
2022-11-24T06:21:10.967Z,100591.41
2022-11-24T06:24:15.874Z,100590.38
2022-11-24T06:27:20.470Z,100599.13
2022-11-24T06:30:24.632Z,100607.25
2022-11-24T06:33:32.141Z,100597.66
2022-11-24T06:36:35.051Z,100606.41
2022-11-24T06:39:37.789Z,100614.72
2022-11-24T06:42:40.590Z,100618.91
2022-11-24T06:45:44.484Z,100614.75
2022-11-24T06:48:48.569Z,100612.66
2022-11-24T06:51:52.438Z,100615.78
2022-11-24T06:54:55.350Z,100628.28
2022-11-24T06:57:58.059Z,100620.56
2022-11-24T07:01:02.107Z,100624.31
2022-11-24T07:04:06.458Z,100623.91
2022-11-24T07:07:10.395Z,100626.84
2022-11-24T07:10:13.149Z,100625.78
2022-11-24T07:13:16.224Z,100637.03
2022-11-24T07:16:22.258Z,100636.00
2022-11-24T07:19:26.409Z,100638.94
2022-11-24T07:22:29.354Z,100644.31
2022-11-24T07:25:32.110Z,100644.13
2022-11-24T07:28:37.697Z,100649.31
2022-11-24T07:31:40.610Z,100648.09
2022-11-24T07:34:44.748Z,100643.09
2022-11-24T07:37:48.742Z,100654.94
2022-11-24T07:40:52.583Z,100652.25
2022-11-24T07:43:55.273Z,100651.00
2022-11-24T07:46:59.389Z,100658.09
2022-11-24T07:50:03.563Z,100670.38
2022-11-24T07:53:07.473Z,100671.44
2022-11-24T07:56:10.745Z,100675.19
2022-11-24T07:59:14.672Z,100682.47
2022-11-24T08:02:18.711Z,100678.09
2022-11-24T08:05:24.039Z,100671.66
2022-11-24T08:08:27.426Z,100673.50
2022-11-24T08:11:32.577Z,100681.25
2022-11-24T08:14:35.448Z,100687.28
2022-11-24T08:17:39.581Z,100679.13
2022-11-24T08:20:43.655Z,100684.97
2022-11-24T08:23:47.807Z,100684.34
2022-11-24T08:26:50.520Z,100690.19
2022-11-24T08:29:54.500Z,100695.41
2022-11-24T08:33:00.024Z,100686.41
2022-11-24T08:36:09.048Z,100681.63
2022-11-24T08:39:14.182Z,100677.41
2022-11-24T08:42:16.971Z,100682.84
2022-11-24T08:45:23.121Z,100684.09
2022-11-24T08:48:27.587Z,100692.66
2022-11-24T08:51:31.695Z,100695.97
2022-11-24T08:54:36.035Z,100704.94
2022-11-24T08:57:38.951Z,100720.38
2022-11-24T09:00:41.770Z,100713.47
2022-11-24T09:03:50.368Z,100727.66
2022-11-24T09:06:55.203Z,100715.75
2022-11-24T09:09:59.282Z,100708.84
2022-11-24T09:13:06.376Z,100709.22
2022-11-24T09:16:11.373Z,100721.69
2022-11-24T09:19:15.540Z,100707.50
2022-11-24T09:22:24.887Z,100708.72
2022-11-24T09:25:27.908Z,100726.44
2022-11-24T09:28:30.677Z,100727.91
2022-11-24T09:31:37.371Z,100734.16
2022-11-24T09:34:40.108Z,100737.66
2022-11-24T09:37:46.904Z,100744.34
2022-11-24T09:40:51.474Z,100740.97
2022-11-24T09:44:07.441Z,100744.44
2022-11-24T09:47:17.765Z,100741.50
2022-11-24T09:50:23.007Z,100733.34
2022-11-24T09:53:35.569Z,100727.75
2022-11-24T09:56:41.505Z,100733.38
2022-11-24T09:59:44.320Z,100738.50
2022-11-24T10:06:23.303Z,100736.56
2022-11-24T10:09:42.451Z,100743.38
2022-11-24T10:12:57.870Z,100748.47
2022-11-24T10:16:09.664Z,100749.22
2022-11-24T10:19:21.911Z,100746.19
2022-11-24T10:22:40.449Z,100751.81
2022-11-24T10:25:52.450Z,100745.75
2022-11-24T10:28:56.816Z,100752.78
2022-11-24T10:32:00.793Z,100756.09
2022-11-24T10:35:17.269Z,100759.47
2022-11-24T10:38:32.744Z,100762.94
2022-11-24T10:45:12.977Z,100759.19
2022-11-24T10:51:50.290Z,100754.19
2022-11-24T10:54:59.502Z,100769.69
2022-11-24T10:58:16.204Z,100764.22
2022-11-24T11:01:29.991Z,100769.75
2022-11-24T11:04:34.257Z,100777.47
2022-11-24T11:07:38.323Z,100769.00
2022-11-24T11:10:41.971Z,100774.13
2022-11-24T11:13:56.842Z,100779.31
2022-11-24T11:17:03.054Z,100766.94
2022-11-24T11:20:18.572Z,100768.78
2022-11-24T11:23:26.440Z,100768.41
2022-11-24T11:26:34.957Z,100768.16
2022-11-24T11:36:26.599Z,100756.88
2022-11-24T11:39:34.161Z,100757.22
2022-11-24T11:43:01.952Z,100754.69
2022-11-24T11:46:14.943Z,100748.63
2022-11-24T11:49:19.066Z,100753.69
2022-11-24T11:52:43.753Z,100761.41
2022-11-24T11:55:57.382Z,100762.41
2022-11-24T11:59:31.241Z,100776.88
2022-11-24T12:03:01.694Z,100778.69
2022-11-24T12:06:15.899Z,100776.84
2022-11-24T12:09:26.062Z,100782.91
2022-11-24T12:13:11.763Z,100775.28
2022-11-24T12:16:31.502Z,100776.28
2022-11-24T12:20:02.669Z,100785.03
2022-11-24T12:23:16.842Z,100774.75
2022-11-24T12:26:27.464Z,100787.59
2022-11-24T12:29:58.422Z,100784.06
2022-11-24T12:33:26.314Z,100787.16
2022-11-24T12:36:50.996Z,100781.69
2022-11-24T12:40:03.391Z,100784.56
2022-11-24T12:43:14.630Z,100782.59
2022-11-24T12:50:00.301Z,100788.88
2022-11-24T12:53:08.695Z,100788.28
2022-11-24T12:59:45.425Z,100792.38
2022-11-24T13:03:06.623Z,100789.78
2022-11-24T13:09:40.440Z,100794.22
2022-11-24T13:12:54.963Z,100787.44
2022-11-24T13:19:39.664Z,100793.78
2022-11-24T13:22:48.248Z,100799.78
2022-11-24T13:26:15.894Z,100806.44
2022-11-24T13:29:35.237Z,100800.97
2022-11-24T13:32:48.261Z,100809.31
2022-11-24T13:36:30.135Z,100821.75
2022-11-24T13:39:51.346Z,100826.44
2022-11-24T13:43:23.505Z,100837.78
2022-11-24T13:47:05.115Z,100835.59
2022-11-24T13:50:39.994Z,100843.78
2022-11-24T13:53:48.059Z,100847.78
2022-11-24T14:00:24.243Z,100849.69
2022-11-24T14:03:32.406Z,100845.34
2022-11-24T14:06:40.610Z,100864.13
2022-11-24T14:09:47.080Z,100864.00
2022-11-24T14:13:26.421Z,100865.19
2022-11-24T14:16:30.635Z,100870.78
2022-11-24T14:19:34.967Z,100873.13
2022-11-24T14:22:42.053Z,100882.94
2022-11-24T14:25:51.393Z,100882.38
2022-11-24T14:28:55.455Z,100888.66
2022-11-24T14:32:03.522Z,100882.16
2022-11-24T14:35:23.754Z,100873.53
2022-11-24T14:38:26.546Z,100881.47
2022-11-24T14:41:30.026Z,100881.72
2022-11-24T14:44:39.198Z,100882.06
2022-11-24T14:47:46.678Z,100897.00
2022-11-24T14:50:49.572Z,100893.53
2022-11-24T14:53:55.143Z,100894.72
2022-11-24T14:57:01.827Z,100895.78
2022-11-24T15:00:08.994Z,100908.63
2022-11-24T15:03:18.173Z,100896.84
2022-11-24T15:06:22.247Z,100899.81
2022-11-24T15:09:33.353Z,100914.69
2022-11-24T15:12:40.478Z,100907.34
2022-11-24T15:15:50.627Z,100912.88
2022-11-24T15:19:00.228Z,100914.53
2022-11-24T15:22:41.981Z,100926.41
2022-11-24T15:25:46.535Z,100916.16
2022-11-24T15:28:49.257Z,100924.53
2022-11-24T15:31:53.501Z,100915.38
2022-11-24T15:34:57.620Z,100926.28
2022-11-24T15:41:24.354Z,100936.56
2022-11-24T15:44:27.031Z,100946.41
2022-11-24T15:47:31.024Z,100953.97
2022-11-24T15:50:36.934Z,100955.56
2022-11-24T15:53:42.298Z,100964.03
2022-11-24T15:56:47.513Z,100949.06
2022-11-24T15:59:51.637Z,100944.56
2022-11-24T16:02:55.371Z,100956.28
2022-11-24T16:05:59.699Z,100957.13
2022-11-24T16:09:03.931Z,100959.66
2022-11-24T16:12:09.432Z,100954.22
2022-11-24T16:15:12.133Z,100958.19
2022-11-24T16:18:16.350Z,100961.38
2022-11-24T16:21:20.505Z,100960.59
2022-11-24T16:24:24.468Z,100961.03
2022-11-24T16:27:27.217Z,100958.53
2022-11-24T16:30:29.899Z,100968.44
2022-11-24T16:33:32.856Z,100973.06
2022-11-24T16:36:36.931Z,100979.44
2022-11-24T16:39:39.652Z,100977.09
2022-11-24T16:42:42.363Z,100975.19
2022-11-24T16:45:46.005Z,100974.56
2022-11-24T16:48:50.777Z,100975.19
2022-11-24T16:51:54.912Z,100983.81
2022-11-24T16:54:58.855Z,100983.44
2022-11-24T16:58:04.977Z,100987.81
2022-11-24T17:01:10.256Z,100992.22
2022-11-24T17:04:14.455Z,100984.50
2022-11-24T17:07:19.838Z,100992.66
2022-11-24T17:10:22.571Z,100992.03
2022-11-24T17:13:25.372Z,100998.09
2022-11-24T17:16:29.369Z,101001.44
2022-11-24T17:19:33.969Z,100996.81
2022-11-24T17:22:38.029Z,100993.50
2022-11-24T17:25:41.235Z,100990.53
2022-11-24T17:28:45.540Z,100987.09
2022-11-24T17:31:48.244Z,100989.38
2022-11-24T17:34:50.941Z,100995.06
2022-11-24T17:37:58.230Z,101003.22
2022-11-24T17:41:02.195Z,100995.66
2022-11-24T17:44:06.170Z,101003.22
2022-11-24T17:50:30.435Z,101016.59
2022-11-24T17:53:38.499Z,101021.81
2022-11-24T17:56:42.580Z,101025.00
2022-11-24T17:59:45.305Z,101017.66
2022-11-24T18:02:48.036Z,101020.16
2022-11-24T18:09:15.010Z,101017.44
2022-11-24T18:15:39.294Z,101014.78
2022-11-24T18:18:47.395Z,101021.06
2022-11-24T18:21:53.887Z,101026.13
2022-11-24T18:24:57.961Z,101035.56
2022-11-24T18:28:01.875Z,101038.13
2022-11-24T18:31:07.451Z,101032.69
2022-11-24T18:34:10.155Z,101037.31
2022-11-24T18:40:41.066Z,101036.72
2022-11-24T18:43:44.245Z,101036.31
2022-11-24T18:50:09.178Z,101030.06
2022-11-24T18:53:11.897Z,101039.50
2022-11-24T18:56:18.708Z,101029.25
2022-11-24T18:59:21.410Z,101042.25
2022-11-24T19:02:24.913Z,101033.47
2022-11-24T19:05:27.691Z,101031.41
2022-11-24T19:08:31.700Z,101038.53
2022-11-24T19:11:38.027Z,101030.38
2022-11-24T19:14:40.718Z,101022.66
2022-11-24T19:17:47.304Z,101037.47
2022-11-24T19:20:50.225Z,101047.94
2022-11-24T19:23:53.171Z,101045.44
2022-11-24T19:26:57.729Z,101043.53
2022-11-24T19:30:00.448Z,101047.72
2022-11-24T19:33:03.196Z,101052.94
2022-11-24T19:36:08.676Z,101055.66
2022-11-24T19:39:18.321Z,101048.78
2022-11-24T19:42:22.420Z,101050.44
2022-11-24T19:45:25.248Z,101042.69
2022-11-24T19:48:32.656Z,101056.69
2022-11-24T19:51:37.144Z,101059.38
2022-11-24T19:54:40.488Z,101076.50
2022-11-24T19:57:44.600Z,101081.94
2022-11-24T20:00:48.668Z,101081.06
2022-11-24T20:03:56.178Z,101076.25
2022-11-24T20:07:00.150Z,101089.19
2022-11-24T20:10:07.572Z,101092.50
2022-11-24T20:16:34.675Z,101102.94
2022-11-24T20:19:38.710Z,101099.16
2022-11-24T20:22:42.393Z,101102.06
2022-11-24T20:25:46.323Z,101107.28
2022-11-24T20:28:50.937Z,101109.75
2022-11-24T20:31:57.308Z,101114.53
2022-11-24T20:35:02.875Z,101106.19
2022-11-24T20:38:05.556Z,101112.19
2022-11-24T20:41:11.653Z,101109.25
2022-11-24T20:44:18.342Z,101119.47
2022-11-24T20:47:22.322Z,101120.72
2022-11-24T20:50:26.282Z,101123.00
2022-11-24T20:53:30.251Z,101121.91
2022-11-24T20:56:36.488Z,101118.38
2022-11-24T20:59:41.884Z,101116.06
2022-11-24T21:02:44.694Z,101112.53
2022-11-24T21:05:48.897Z,101113.34
2022-11-24T21:08:52.381Z,101118.75
2022-11-24T21:11:56.667Z,101117.47
2022-11-24T21:18:23.088Z,101119.53
2022-11-24T21:21:29.461Z,101123.28
2022-11-24T21:24:32.236Z,101127.25
2022-11-24T21:27:36.292Z,101129.94
2022-11-24T21:30:41.627Z,101124.09
2022-11-24T21:33:45.863Z,101130.56
2022-11-24T21:36:50.233Z,101124.31
2022-11-24T21:39:54.226Z,101124.66
2022-11-24T21:42:58.971Z,101134.88
2022-11-24T21:46:05.430Z,101133.59
2022-11-24T21:49:08.288Z,101143.41
2022-11-24T21:52:12.268Z,101141.34
2022-11-24T21:55:16.471Z,101141.34
2022-11-24T21:58:19.166Z,101151.13
2022-11-24T22:01:26.432Z,101146.81
2022-11-24T22:04:29.215Z,101161.00
2022-11-24T22:07:33.809Z,101154.97
2022-11-24T22:10:36.531Z,101154.97
2022-11-24T22:13:40.797Z,101157.09
2022-11-24T22:16:45.003Z,101148.56
2022-11-24T22:23:09.547Z,101160.69
2022-11-24T22:26:18.504Z,101158.00
2022-11-24T22:29:22.556Z,101167.03
2022-11-24T22:32:26.704Z,101164.75
2022-11-24T22:35:29.466Z,101149.13
2022-11-24T22:38:35.135Z,101162.09
2022-11-24T22:41:37.821Z,101158.78
2022-11-24T22:44:41.752Z,101168.00
2022-11-24T22:47:45.795Z,101169.91
2022-11-24T22:50:49.830Z,101173.66
2022-11-24T22:53:55.360Z,101171.41
2022-11-24T22:56:58.058Z,101168.91
2022-11-24T23:00:02.001Z,101175.59
2022-11-24T23:03:06.236Z,101167.94
2022-11-24T23:06:13.710Z,101173.56
2022-11-24T23:09:16.537Z,101171.09
2022-11-24T23:12:20.686Z,101173.81
2022-11-24T23:15:24.697Z,101174.44
2022-11-24T23:18:28.761Z,101177.19
2022-11-24T23:21:35.324Z,101176.75
2022-11-24T23:24:38.223Z,101177.41
2022-11-24T23:27:42.253Z,101175.13
2022-11-24T23:30:45.444Z,101173.44
2022-11-24T23:33:50.835Z,101180.13
2022-11-24T23:36:54.788Z,101180.56
2022-11-24T23:39:57.498Z,101186.03
2022-11-24T23:43:01.482Z,101185.19
2022-11-24T23:46:05.033Z,101188.97
2022-11-24T23:49:11.712Z,101192.13
2022-11-24T23:52:15.681Z,101185.81
2022-11-24T23:55:19.030Z,101186.69
2022-11-24T23:58:23.033Z,101184.38
